sensor_id;sensor_type;location;lat;lon;timestamp;pressure;altitude;pressure_sealevel;temperature
10058;BMP180;5068;51.286;7.518;2023-04-01T00:00:06;97177.00;;;12.90
10058;BMP180;5068;51.286;7.518;2023-04-01T00:01:43;97189.00;;;12.90
10058;BMP180;5068;51.286;7.518;2023-04-01T00:03:17;97189.00;;;12.80
10058;BMP180;5068;51.286;7.518;2023-04-01T00:04:52;97188.00;;;12.80
10058;BMP180;5068;51.286;7.518;2023-04-01T00:06:25;97182.00;;;12.80
10058;BMP180;5068;51.286;7.518;2023-04-01T00:07:59;97183.00;;;12.80
10058;BMP180;5068;51.286;7.518;2023-04-01T00:09:33;97172.00;;;12.70
10058;BMP180;5068;51.286;7.518;2023-04-01T00:11:07;97183.00;;;12.70
10058;BMP180;5068;51.286;7.518;2023-04-01T00:12:42;97185.00;;;12.70
10058;BMP180;5068;51.286;7.518;2023-04-01T00:14:19;97181.00;;;12.70
10058;BMP180;5068;51.286;7.518;2023-04-01T00:15:54;97183.00;;;12.70
10058;BMP180;5068;51.286;7.518;2023-04-01T00:17:29;97181.00;;;12.80
10058;BMP180;5068;51.286;7.518;2023-04-01T00:19:03;97181.00;;;12.70
10058;BMP180;5068;51.286;7.518;2023-04-01T00:20:37;97178.00;;;12.80
10058;BMP180;5068;51.286;7.518;2023-04-01T00:22:11;97192.00;;;12.80
10058;BMP180;5068;51.286;7.518;2023-04-01T00:23:44;97182.00;;;12.80
10058;BMP180;5068;51.286;7.518;2023-04-01T00:25:18;97183.00;;;12.80
10058;BMP180;5068;51.286;7.518;2023-04-01T00:26:51;97174.00;;;12.80
10058;BMP180;5068;51.286;7.518;2023-04-01T00:28:28;97166.00;;;12.80
10058;BMP180;5068;51.286;7.518;2023-04-01T00:30:03;97180.00;;;12.80
10058;BMP180;5068;51.286;7.518;2023-04-01T00:31:37;97177.00;;;12.70
10058;BMP180;5068;51.286;7.518;2023-04-01T00:33:11;97172.00;;;12.70
10058;BMP180;5068;51.286;7.518;2023-04-01T00:34:45;97169.00;;;12.70
10058;BMP180;5068;51.286;7.518;2023-04-01T00:36:21;97182.00;;;12.70
10058;BMP180;5068;51.286;7.518;2023-04-01T00:37:55;97170.00;;;12.70
10058;BMP180;5068;51.286;7.518;2023-04-01T00:39:29;97167.00;;;12.60
10058;BMP180;5068;51.286;7.518;2023-04-01T00:41:05;97160.00;;;12.60
10058;BMP180;5068;51.286;7.518;2023-04-01T00:42:37;97163.00;;;12.60
10058;BMP180;5068;51.286;7.518;2023-04-01T00:44:17;97169.00;;;12.60
10058;BMP180;5068;51.286;7.518;2023-04-01T00:45:51;97168.00;;;12.60
10058;BMP180;5068;51.286;7.518;2023-04-01T00:47:26;97162.00;;;12.60
10058;BMP180;5068;51.286;7.518;2023-04-01T00:49:01;97173.00;;;12.60
10058;BMP180;5068;51.286;7.518;2023-04-01T00:50:37;97170.00;;;12.60
10058;BMP180;5068;51.286;7.518;2023-04-01T00:52:17;97164.00;;;12.50
10058;BMP180;5068;51.286;7.518;2023-04-01T00:53:54;97172.00;;;12.60
10058;BMP180;5068;51.286;7.518;2023-04-01T00:55:34;97168.00;;;12.60
10058;BMP180;5068;51.286;7.518;2023-04-01T00:57:13;97167.00;;;12.50
10058;BMP180;5068;51.286;7.518;2023-04-01T00:58:52;97162.00;;;12.50
10058;BMP180;5068;51.286;7.518;2023-04-01T01:00:38;97161.00;;;12.50
10058;BMP180;5068;51.286;7.518;2023-04-01T01:02:23;97163.00;;;12.40
10058;BMP180;5068;51.286;7.518;2023-04-01T01:03:56;97165.00;;;12.40
10058;BMP180;5068;51.286;7.518;2023-04-01T01:07:40;97167.00;;;12.40
10058;BMP180;5068;51.286;7.518;2023-04-01T01:09:42;97165.00;;;12.40
10058;BMP180;5068;51.286;7.518;2023-04-01T01:11:29;97170.00;;;12.40
10058;BMP180;5068;51.286;7.518;2023-04-01T01:13:22;97170.00;;;12.40
10058;BMP180;5068;51.286;7.518;2023-04-01T01:15:09;97166.00;;;12.40
10058;BMP180;5068;51.286;7.518;2023-04-01T01:16:53;97169.00;;;12.40
10058;BMP180;5068;51.286;7.518;2023-04-01T01:18:35;97169.00;;;12.40
10058;BMP180;5068;51.286;7.518;2023-04-01T01:23:13;97148.00;;;12.40
10058;BMP180;5068;51.286;7.518;2023-04-01T01:25:06;97154.00;;;12.40
10058;BMP180;5068;51.286;7.518;2023-04-01T01:26:54;97155.00;;;12.30
10058;BMP180;5068;51.286;7.518;2023-04-01T01:28:44;97155.00;;;12.30
10058;BMP180;5068;51.286;7.518;2023-04-01T01:30:36;97149.00;;;12.30
10058;BMP180;5068;51.286;7.518;2023-04-01T01:32:24;97156.00;;;12.30
10058;BMP180;5068;51.286;7.518;2023-04-01T01:34:15;97148.00;;;12.30
10058;BMP180;5068;51.286;7.518;2023-04-01T01:35:59;97150.00;;;12.40
10058;BMP180;5068;51.286;7.518;2023-04-01T01:37:40;97146.00;;;12.30
10058;BMP180;5068;51.286;7.518;2023-04-01T01:39:17;97148.00;;;12.40
10058;BMP180;5068;51.286;7.518;2023-04-01T01:41:01;97150.00;;;12.40
10058;BMP180;5068;51.286;7.518;2023-04-01T01:42:40;97146.00;;;12.40
10058;BMP180;5068;51.286;7.518;2023-04-01T01:44:16;97150.00;;;12.40
10058;BMP180;5068;51.286;7.518;2023-04-01T01:45:56;97145.00;;;12.40
10058;BMP180;5068;51.286;7.518;2023-04-01T01:47:31;97150.00;;;12.40
10058;BMP180;5068;51.286;7.518;2023-04-01T01:49:10;97137.00;;;12.40
10058;BMP180;5068;51.286;7.518;2023-04-01T01:50:46;97145.00;;;12.50
10058;BMP180;5068;51.286;7.518;2023-04-01T01:52:22;97138.00;;;12.50
10058;BMP180;5068;51.286;7.518;2023-04-01T01:53:55;97144.00;;;12.50
10058;BMP180;5068;51.286;7.518;2023-04-01T01:55:32;97133.00;;;12.40
10058;BMP180;5068;51.286;7.518;2023-04-01T01:57:09;97139.00;;;12.40
10058;BMP180;5068;51.286;7.518;2023-04-01T01:58:49;97147.00;;;12.40
10058;BMP180;5068;51.286;7.518;2023-04-01T02:00:27;97135.00;;;12.40
10058;BMP180;5068;51.286;7.518;2023-04-01T02:02:01;97138.00;;;12.40
10058;BMP180;5068;51.286;7.518;2023-04-01T02:03:42;97130.00;;;12.30
10058;BMP180;5068;51.286;7.518;2023-04-01T02:05:21;97143.00;;;12.30
10058;BMP180;5068;51.286;7.518;2023-04-01T02:07:02;97141.00;;;12.30
10058;BMP180;5068;51.286;7.518;2023-04-01T02:08:42;97142.00;;;12.30
10058;BMP180;5068;51.286;7.518;2023-04-01T02:10:21;97141.00;;;12.30
10058;BMP180;5068;51.286;7.518;2023-04-01T02:11:59;97133.00;;;12.30
10058;BMP180;5068;51.286;7.518;2023-04-01T02:13:45;97147.00;;;12.40
10058;BMP180;5068;51.286;7.518;2023-04-01T02:15:21;97141.00;;;12.30
10058;BMP180;5068;51.286;7.518;2023-04-01T02:16:58;97141.00;;;12.30
10058;BMP180;5068;51.286;7.518;2023-04-01T02:18:35;97138.00;;;12.30
10058;BMP180;5068;51.286;7.518;2023-04-01T02:20:15;97144.00;;;12.40
10058;BMP180;5068;51.286;7.518;2023-04-01T02:21:53;97143.00;;;12.40
10058;BMP180;5068;51.286;7.518;2023-04-01T02:23:28;97140.00;;;12.40
10058;BMP180;5068;51.286;7.518;2023-04-01T02:25:07;97148.00;;;12.40
10058;BMP180;5068;51.286;7.518;2023-04-01T02:26:42;97146.00;;;12.30
10058;BMP180;5068;51.286;7.518;2023-04-01T02:28:18;97145.00;;;12.30
10058;BMP180;5068;51.286;7.518;2023-04-01T02:29:53;97157.00;;;12.30
10058;BMP180;5068;51.286;7.518;2023-04-01T02:31:27;97147.00;;;12.40
10058;BMP180;5068;51.286;7.518;2023-04-01T02:33:03;97151.00;;;12.30
10058;BMP180;5068;51.286;7.518;2023-04-01T02:34:37;97149.00;;;12.30
10058;BMP180;5068;51.286;7.518;2023-04-01T02:36:13;97160.00;;;12.40
10058;BMP180;5068;51.286;7.518;2023-04-01T02:37:49;97151.00;;;12.30
10058;BMP180;5068;51.286;7.518;2023-04-01T02:39:23;97154.00;;;12.40
10058;BMP180;5068;51.286;7.518;2023-04-01T02:41:00;97165.00;;;12.40
10058;BMP180;5068;51.286;7.518;2023-04-01T02:42:36;97154.00;;;12.40
10058;BMP180;5068;51.286;7.518;2023-04-01T02:44:10;97158.00;;;12.40
10058;BMP180;5068;51.286;7.518;2023-04-01T02:45:44;97156.00;;;12.40
10058;BMP180;5068;51.286;7.518;2023-04-01T02:47:17;97153.00;;;12.40
10058;BMP180;5068;51.286;7.518;2023-04-01T02:48:50;97146.00;;;12.50
10058;BMP180;5068;51.286;7.518;2023-04-01T02:50:23;97147.00;;;12.50
10058;BMP180;5068;51.286;7.518;2023-04-01T02:51:56;97149.00;;;12.50
10058;BMP180;5068;51.286;7.518;2023-04-01T02:53:29;97160.00;;;12.50
10058;BMP180;5068;51.286;7.518;2023-04-01T02:55:03;97149.00;;;12.50
10058;BMP180;5068;51.286;7.518;2023-04-01T02:56:38;97159.00;;;12.50
10058;BMP180;5068;51.286;7.518;2023-04-01T02:58:14;97146.00;;;12.50
10058;BMP180;5068;51.286;7.518;2023-04-01T02:59:47;97152.00;;;12.50
10058;BMP180;5068;51.286;7.518;2023-04-01T03:01:21;97145.00;;;12.40
10058;BMP180;5068;51.286;7.518;2023-04-01T03:02:54;97145.00;;;12.40
10058;BMP180;5068;51.286;7.518;2023-04-01T03:04:28;97155.00;;;12.40
10058;BMP180;5068;51.286;7.518;2023-04-01T03:06:05;97158.00;;;12.50
10058;BMP180;5068;51.286;7.518;2023-04-01T03:07:38;97149.00;;;12.50
10058;BMP180;5068;51.286;7.518;2023-04-01T03:09:12;97156.00;;;12.50
10058;BMP180;5068;51.286;7.518;2023-04-01T03:10:44;97157.00;;;12.50
10058;BMP180;5068;51.286;7.518;2023-04-01T03:12:18;97160.00;;;12.50
10058;BMP180;5068;51.286;7.518;2023-04-01T03:13:55;97158.00;;;12.50
10058;BMP180;5068;51.286;7.518;2023-04-01T03:15:28;97153.00;;;12.50
10058;BMP180;5068;51.286;7.518;2023-04-01T03:17:02;97154.00;;;12.50
10058;BMP180;5068;51.286;7.518;2023-04-01T03:18:35;97163.00;;;12.50
10058;BMP180;5068;51.286;7.518;2023-04-01T03:20:10;97149.00;;;12.50
10058;BMP180;5068;51.286;7.518;2023-04-01T03:21:43;97147.00;;;12.50
10058;BMP180;5068;51.286;7.518;2023-04-01T03:23:17;97150.00;;;12.50
10058;BMP180;5068;51.286;7.518;2023-04-01T03:24:51;97146.00;;;12.40
10058;BMP180;5068;51.286;7.518;2023-04-01T03:26:24;97144.00;;;12.40
10058;BMP180;5068;51.286;7.518;2023-04-01T03:28:01;97147.00;;;12.40
10058;BMP180;5068;51.286;7.518;2023-04-01T03:29:34;97144.00;;;12.40
10058;BMP180;5068;51.286;7.518;2023-04-01T03:31:07;97142.00;;;12.40
10058;BMP180;5068;51.286;7.518;2023-04-01T03:32:47;97145.00;;;12.40
10058;BMP180;5068;51.286;7.518;2023-04-01T03:34:20;97142.00;;;12.40
10058;BMP180;5068;51.286;7.518;2023-04-01T03:35:53;97150.00;;;12.40
10058;BMP180;5068;51.286;7.518;2023-04-01T03:37:26;97154.00;;;12.40
10058;BMP180;5068;51.286;7.518;2023-04-01T03:38:59;97140.00;;;12.40
10058;BMP180;5068;51.286;7.518;2023-04-01T03:40:42;97154.00;;;12.40
10058;BMP180;5068;51.286;7.518;2023-04-01T03:42:16;97154.00;;;12.40
10058;BMP180;5068;51.286;7.518;2023-04-01T03:43:50;97149.00;;;12.40
10058;BMP180;5068;51.286;7.518;2023-04-01T03:45:24;97158.00;;;12.40
10058;BMP180;5068;51.286;7.518;2023-04-01T03:46:57;97150.00;;;12.40
10058;BMP180;5068;51.286;7.518;2023-04-01T03:48:30;97155.00;;;12.40
10058;BMP180;5068;51.286;7.518;2023-04-01T03:50:13;97150.00;;;12.40
10058;BMP180;5068;51.286;7.518;2023-04-01T03:51:46;97143.00;;;12.40
10058;BMP180;5068;51.286;7.518;2023-04-01T03:53:19;97152.00;;;12.40
10058;BMP180;5068;51.286;7.518;2023-04-01T03:54:53;97155.00;;;12.30
10058;BMP180;5068;51.286;7.518;2023-04-01T03:56:25;97146.00;;;12.30
10058;BMP180;5068;51.286;7.518;2023-04-01T03:57:59;97161.00;;;12.30
10058;BMP180;5068;51.286;7.518;2023-04-01T03:59:35;97155.00;;;12.30
10058;BMP180;5068;51.286;7.518;2023-04-01T04:01:19;97159.00;;;12.30
10058;BMP180;5068;51.286;7.518;2023-04-01T04:02:55;97155.00;;;12.30
10058;BMP180;5068;51.286;7.518;2023-04-01T04:04:34;97163.00;;;12.30
10058;BMP180;5068;51.286;7.518;2023-04-01T04:06:11;97157.00;;;12.30
10058;BMP180;5068;51.286;7.518;2023-04-01T04:07:44;97164.00;;;12.30
10058;BMP180;5068;51.286;7.518;2023-04-01T04:09:17;97160.00;;;12.30
10058;BMP180;5068;51.286;7.518;2023-04-01T04:10:55;97165.00;;;12.30
10058;BMP180;5068;51.286;7.518;2023-04-01T04:12:28;97159.00;;;12.30
10058;BMP180;5068;51.286;7.518;2023-04-01T04:14:01;97169.00;;;12.30
10058;BMP180;5068;51.286;7.518;2023-04-01T04:15:36;97174.00;;;12.30
10058;BMP180;5068;51.286;7.518;2023-04-01T04:17:10;97168.00;;;12.30
10058;BMP180;5068;51.286;7.518;2023-04-01T04:18:48;97173.00;;;12.30
10058;BMP180;5068;51.286;7.518;2023-04-01T04:20:22;97177.00;;;12.30
10058;BMP180;5068;51.286;7.518;2023-04-01T04:21:56;97172.00;;;12.30
10058;BMP180;5068;51.286;7.518;2023-04-01T04:23:29;97166.00;;;12.40
10058;BMP180;5068;51.286;7.518;2023-04-01T04:25:06;97171.00;;;12.40
10058;BMP180;5068;51.286;7.518;2023-04-01T04:26:41;97171.00;;;12.40
10058;BMP180;5068;51.286;7.518;2023-04-01T04:28:14;97171.00;;;12.40
10058;BMP180;5068;51.286;7.518;2023-04-01T04:29:46;97174.00;;;12.40
10058;BMP180;5068;51.286;7.518;2023-04-01T04:31:23;97173.00;;;12.40
10058;BMP180;5068;51.286;7.518;2023-04-01T04:32:59;97175.00;;;12.40
10058;BMP180;5068;51.286;7.518;2023-04-01T04:34:31;97168.00;;;12.40
10058;BMP180;5068;51.286;7.518;2023-04-01T04:36:06;97178.00;;;12.40
10058;BMP180;5068;51.286;7.518;2023-04-01T04:37:39;97182.00;;;12.40
10058;BMP180;5068;51.286;7.518;2023-04-01T04:39:12;97183.00;;;12.40
10058;BMP180;5068;51.286;7.518;2023-04-01T04:40:47;97184.00;;;12.40
10058;BMP180;5068;51.286;7.518;2023-04-01T04:42:20;97181.00;;;12.40
10058;BMP180;5068;51.286;7.518;2023-04-01T04:43:57;97183.00;;;12.40
10058;BMP180;5068;51.286;7.518;2023-04-01T04:45:31;97178.00;;;12.30
10058;BMP180;5068;51.286;7.518;2023-04-01T04:47:06;97183.00;;;12.40
10058;BMP180;5068;51.286;7.518;2023-04-01T04:48:40;97185.00;;;12.30
10058;BMP180;5068;51.286;7.518;2023-04-01T04:50:15;97183.00;;;12.40
10058;BMP180;5068;51.286;7.518;2023-04-01T04:51:49;97187.00;;;12.40
10058;BMP180;5068;51.286;7.518;2023-04-01T04:53:24;97191.00;;;12.40
10058;BMP180;5068;51.286;7.518;2023-04-01T04:54:58;97184.00;;;12.30
10058;BMP180;5068;51.286;7.518;2023-04-01T04:56:31;97188.00;;;12.30
10058;BMP180;5068;51.286;7.518;2023-04-01T04:58:09;97188.00;;;12.30
10058;BMP180;5068;51.286;7.518;2023-04-01T04:59:46;97191.00;;;12.40
10058;BMP180;5068;51.286;7.518;2023-04-01T05:01:38;97195.00;;;12.40
10058;BMP180;5068;51.286;7.518;2023-04-01T05:03:14;97183.00;;;12.40
10058;BMP180;5068;51.286;7.518;2023-04-01T05:04:47;97194.00;;;12.40
10058;BMP180;5068;51.286;7.518;2023-04-01T05:06:21;97195.00;;;12.40
10058;BMP180;5068;51.286;7.518;2023-04-01T05:07:54;97188.00;;;12.40
10058;BMP180;5068;51.286;7.518;2023-04-01T05:09:28;97194.00;;;12.40
10058;BMP180;5068;51.286;7.518;2023-04-01T05:11:02;97195.00;;;12.50
10058;BMP180;5068;51.286;7.518;2023-04-01T05:12:38;97193.00;;;12.50
10058;BMP180;5068;51.286;7.518;2023-04-01T05:14:14;97189.00;;;12.50
10058;BMP180;5068;51.286;7.518;2023-04-01T05:15:54;97205.00;;;12.50
10058;BMP180;5068;51.286;7.518;2023-04-01T05:17:27;97198.00;;;12.50
10058;BMP180;5068;51.286;7.518;2023-04-01T05:19:01;97194.00;;;12.50
10058;BMP180;5068;51.286;7.518;2023-04-01T05:20:35;97186.00;;;12.50
10058;BMP180;5068;51.286;7.518;2023-04-01T05:22:08;97194.00;;;12.50
10058;BMP180;5068;51.286;7.518;2023-04-01T05:23:42;97200.00;;;12.50
10058;BMP180;5068;51.286;7.518;2023-04-01T05:25:16;97194.00;;;12.50
10058;BMP180;5068;51.286;7.518;2023-04-01T05:26:49;97193.00;;;12.60
10058;BMP180;5068;51.286;7.518;2023-04-01T05:28:22;97191.00;;;12.50
10058;BMP180;5068;51.286;7.518;2023-04-01T05:29:56;97202.00;;;12.60
10058;BMP180;5068;51.286;7.518;2023-04-01T05:31:45;97212.00;;;12.60
10058;BMP180;5068;51.286;7.518;2023-04-01T05:33:18;97205.00;;;12.50
10058;BMP180;5068;51.286;7.518;2023-04-01T05:34:53;97207.00;;;12.60
10058;BMP180;5068;51.286;7.518;2023-04-01T05:36:26;97209.00;;;12.50
10058;BMP180;5068;51.286;7.518;2023-04-01T05:38:00;97198.00;;;12.50
10058;BMP180;5068;51.286;7.518;2023-04-01T05:39:37;97205.00;;;12.50
10058;BMP180;5068;51.286;7.518;2023-04-01T05:41:10;97204.00;;;12.50
10058;BMP180;5068;51.286;7.518;2023-04-01T05:42:47;97203.00;;;12.50
10058;BMP180;5068;51.286;7.518;2023-04-01T05:44:21;97213.00;;;12.50
10058;BMP180;5068;51.286;7.518;2023-04-01T05:46:23;97212.00;;;12.50
10058;BMP180;5068;51.286;7.518;2023-04-01T05:48:04;97215.00;;;12.50
10058;BMP180;5068;51.286;7.518;2023-04-01T05:49:43;97214.00;;;12.50
10058;BMP180;5068;51.286;7.518;2023-04-01T05:51:17;97215.00;;;12.50
10058;BMP180;5068;51.286;7.518;2023-04-01T05:52:51;97212.00;;;12.50
10058;BMP180;5068;51.286;7.518;2023-04-01T05:54:24;97212.00;;;12.50
10058;BMP180;5068;51.286;7.518;2023-04-01T05:56:02;97213.00;;;12.50
10058;BMP180;5068;51.286;7.518;2023-04-01T05:57:40;97220.00;;;12.60
10058;BMP180;5068;51.286;7.518;2023-04-01T05:59:13;97223.00;;;12.60
10058;BMP180;5068;51.286;7.518;2023-04-01T06:00:47;97212.00;;;12.60
10058;BMP180;5068;51.286;7.518;2023-04-01T06:02:33;97220.00;;;12.60
10058;BMP180;5068;51.286;7.518;2023-04-01T06:04:10;97219.00;;;12.60
10058;BMP180;5068;51.286;7.518;2023-04-01T06:05:45;97218.00;;;12.60
10058;BMP180;5068;51.286;7.518;2023-04-01T06:07:20;97222.00;;;12.60
10058;BMP180;5068;51.286;7.518;2023-04-01T06:08:56;97221.00;;;12.60
10058;BMP180;5068;51.286;7.518;2023-04-01T06:10:44;97224.00;;;12.60
10058;BMP180;5068;51.286;7.518;2023-04-01T06:12:55;97218.00;;;12.60
10058;BMP180;5068;51.286;7.518;2023-04-01T06:14:46;97229.00;;;12.60
10058;BMP180;5068;51.286;7.518;2023-04-01T06:16:38;97224.00;;;12.60
10058;BMP180;5068;51.286;7.518;2023-04-01T06:18:41;97227.00;;;12.60
10058;BMP180;5068;51.286;7.518;2023-04-01T06:20:26;97220.00;;;12.60
10058;BMP180;5068;51.286;7.518;2023-04-01T06:24:57;97227.00;;;12.60
10058;BMP180;5068;51.286;7.518;2023-04-01T06:26:37;97228.00;;;12.60
10058;BMP180;5068;51.286;7.518;2023-04-01T06:28:55;97231.00;;;12.60
10058;BMP180;5068;51.286;7.518;2023-04-01T06:30:38;97224.00;;;12.50
10058;BMP180;5068;51.286;7.518;2023-04-01T06:32:37;97231.00;;;12.50
10058;BMP180;5068;51.286;7.518;2023-04-01T06:34:39;97229.00;;;12.50
10058;BMP180;5068;51.286;7.518;2023-04-01T06:36:43;97233.00;;;12.50
10058;BMP180;5068;51.286;7.518;2023-04-01T06:38:37;97237.00;;;12.50
10058;BMP180;5068;51.286;7.518;2023-04-01T06:40:42;97238.00;;;12.50
10058;BMP180;5068;51.286;7.518;2023-04-01T06:42:55;97235.00;;;12.50
10058;BMP180;5068;51.286;7.518;2023-04-01T06:45:06;97236.00;;;12.50
10058;BMP180;5068;51.286;7.518;2023-04-01T06:47:13;97240.00;;;12.50
10058;BMP180;5068;51.286;7.518;2023-04-01T06:49:36;97247.00;;;12.50
10058;BMP180;5068;51.286;7.518;2023-04-01T06:51:47;97247.00;;;12.50
10058;BMP180;5068;51.286;7.518;2023-04-01T06:53:54;97247.00;;;12.50
10058;BMP180;5068;51.286;7.518;2023-04-01T06:55:57;97245.00;;;12.50
10058;BMP180;5068;51.286;7.518;2023-04-01T06:57:58;97242.00;;;12.50
10058;BMP180;5068;51.286;7.518;2023-04-01T06:59:36;97245.00;;;12.60
10058;BMP180;5068;51.286;7.518;2023-04-01T07:01:16;97246.00;;;12.60
10058;BMP180;5068;51.286;7.518;2023-04-01T07:03:01;97248.00;;;12.60
10058;BMP180;5068;51.286;7.518;2023-04-01T07:04:41;97265.00;;;12.60
10058;BMP180;5068;51.286;7.518;2023-04-01T07:06:28;97256.00;;;12.70
10058;BMP180;5068;51.286;7.518;2023-04-01T07:08:08;97241.00;;;12.70
10058;BMP180;5068;51.286;7.518;2023-04-01T07:09:51;97246.00;;;12.70
10058;BMP180;5068;51.286;7.518;2023-04-01T07:11:37;97243.00;;;12.70
10058;BMP180;5068;51.286;7.518;2023-04-01T07:13:49;97253.00;;;12.70
10058;BMP180;5068;51.286;7.518;2023-04-01T07:15:30;97252.00;;;12.70
10058;BMP180;5068;51.286;7.518;2023-04-01T07:17:15;97253.00;;;12.70
10058;BMP180;5068;51.286;7.518;2023-04-01T07:18:56;97253.00;;;12.70
10058;BMP180;5068;51.286;7.518;2023-04-01T07:20:38;97249.00;;;12.70
10058;BMP180;5068;51.286;7.518;2023-04-01T07:22:26;97256.00;;;12.70
10058;BMP180;5068;51.286;7.518;2023-04-01T07:24:15;97256.00;;;12.70
10058;BMP180;5068;51.286;7.518;2023-04-01T07:26:06;97258.00;;;12.70
10058;BMP180;5068;51.286;7.518;2023-04-01T07:28:15;97264.00;;;12.70
10058;BMP180;5068;51.286;7.518;2023-04-01T07:29:56;97264.00;;;12.70
10058;BMP180;5068;51.286;7.518;2023-04-01T07:32:09;97271.00;;;12.70
10058;BMP180;5068;51.286;7.518;2023-04-01T07:33:59;97269.00;;;12.70
10058;BMP180;5068;51.286;7.518;2023-04-01T07:35:43;97268.00;;;12.70
10058;BMP180;5068;51.286;7.518;2023-04-01T07:37:27;97267.00;;;12.70
10058;BMP180;5068;51.286;7.518;2023-04-01T07:39:17;97266.00;;;12.80
10058;BMP180;5068;51.286;7.518;2023-04-01T07:41:18;97276.00;;;12.80
10058;BMP180;5068;51.286;7.518;2023-04-01T07:43:34;97272.00;;;12.80
10058;BMP180;5068;51.286;7.518;2023-04-01T07:45:35;97274.00;;;12.80
10058;BMP180;5068;51.286;7.518;2023-04-01T07:47:44;97276.00;;;12.80
10058;BMP180;5068;51.286;7.518;2023-04-01T07:49:30;97276.00;;;12.80
10058;BMP180;5068;51.286;7.518;2023-04-01T07:51:13;97269.00;;;12.80
10058;BMP180;5068;51.286;7.518;2023-04-01T07:53:02;97276.00;;;12.80
10058;BMP180;5068;51.286;7.518;2023-04-01T07:54:45;97278.00;;;12.90
10058;BMP180;5068;51.286;7.518;2023-04-01T07:56:27;97278.00;;;12.90
10058;BMP180;5068;51.286;7.518;2023-04-01T07:58:11;97276.00;;;12.90
10058;BMP180;5068;51.286;7.518;2023-04-01T07:59:59;97282.00;;;12.90
10058;BMP180;5068;51.286;7.518;2023-04-01T08:02:07;97282.00;;;13.00
10058;BMP180;5068;51.286;7.518;2023-04-01T08:04:07;97292.00;;;13.00
10058;BMP180;5068;51.286;7.518;2023-04-01T08:05:54;97282.00;;;13.00
10058;BMP180;5068;51.286;7.518;2023-04-01T08:07:42;97287.00;;;13.00
10058;BMP180;5068;51.286;7.518;2023-04-01T08:09:44;97288.00;;;13.00
10058;BMP180;5068;51.286;7.518;2023-04-01T08:11:56;97289.00;;;13.00
10058;BMP180;5068;51.286;7.518;2023-04-01T08:14:02;97299.00;;;13.00
10058;BMP180;5068;51.286;7.518;2023-04-01T08:16:09;97299.00;;;13.00
10058;BMP180;5068;51.286;7.518;2023-04-01T08:18:06;97307.00;;;13.00
10058;BMP180;5068;51.286;7.518;2023-04-01T08:19:59;97303.00;;;13.10
10058;BMP180;5068;51.286;7.518;2023-04-01T08:21:43;97302.00;;;13.10
10058;BMP180;5068;51.286;7.518;2023-04-01T08:23:22;97309.00;;;13.10
10058;BMP180;5068;51.286;7.518;2023-04-01T08:25:01;97316.00;;;13.20
10058;BMP180;5068;51.286;7.518;2023-04-01T08:26:39;97303.00;;;13.20
10058;BMP180;5068;51.286;7.518;2023-04-01T08:28:24;97312.00;;;13.20
10058;BMP180;5068;51.286;7.518;2023-04-01T08:30:16;97303.00;;;13.20
10058;BMP180;5068;51.286;7.518;2023-04-01T08:31:55;97317.00;;;13.20
10058;BMP180;5068;51.286;7.518;2023-04-01T08:33:30;97319.00;;;13.20
10058;BMP180;5068;51.286;7.518;2023-04-01T08:35:24;97323.00;;;13.20
10058;BMP180;5068;51.286;7.518;2023-04-01T08:37:08;97323.00;;;13.30
10058;BMP180;5068;51.286;7.518;2023-04-01T08:38:46;97328.00;;;13.30
10058;BMP180;5068;51.286;7.518;2023-04-01T08:40:55;97328.00;;;13.20
10058;BMP180;5068;51.286;7.518;2023-04-01T08:43:02;97325.00;;;13.20
10058;BMP180;5068;51.286;7.518;2023-04-01T08:45:09;97336.00;;;13.20
10058;BMP180;5068;51.286;7.518;2023-04-01T08:47:20;97324.00;;;13.10
10058;BMP180;5068;51.286;7.518;2023-04-01T08:49:06;97335.00;;;13.10
10058;BMP180;5068;51.286;7.518;2023-04-01T08:51:25;97335.00;;;13.10
10058;BMP180;5068;51.286;7.518;2023-04-01T08:53:07;97331.00;;;13.00
10058;BMP180;5068;51.286;7.518;2023-04-01T08:55:27;97337.00;;;13.00
10058;BMP180;5068;51.286;7.518;2023-04-01T08:57:15;97336.00;;;13.00
10058;BMP180;5068;51.286;7.518;2023-04-01T08:59:47;97345.00;;;13.00
10058;BMP180;5068;51.286;7.518;2023-04-01T09:02:05;97343.00;;;13.00
10058;BMP180;5068;51.286;7.518;2023-04-01T09:04:25;97350.00;;;13.00
10058;BMP180;5068;51.286;7.518;2023-04-01T09:06:29;97352.00;;;13.00
10058;BMP180;5068;51.286;7.518;2023-04-01T09:08:23;97358.00;;;13.00
10058;BMP180;5068;51.286;7.518;2023-04-01T09:10:53;97352.00;;;13.00
10058;BMP180;5068;51.286;7.518;2023-04-01T09:13:20;97351.00;;;13.00
10058;BMP180;5068;51.286;7.518;2023-04-01T09:15:35;97356.00;;;12.90
10058;BMP180;5068;51.286;7.518;2023-04-01T09:19:48;97357.00;;;12.90
10058;BMP180;5068;51.286;7.518;2023-04-01T09:21:54;97363.00;;;12.90
10058;BMP180;5068;51.286;7.518;2023-04-01T09:23:52;97360.00;;;12.90
10058;BMP180;5068;51.286;7.518;2023-04-01T09:25:55;97360.00;;;12.90
10058;BMP180;5068;51.286;7.518;2023-04-01T09:27:43;97362.00;;;12.90
10058;BMP180;5068;51.286;7.518;2023-04-01T09:29:34;97372.00;;;13.00
10058;BMP180;5068;51.286;7.518;2023-04-01T09:31:54;97362.00;;;13.00
10058;BMP180;5068;51.286;7.518;2023-04-01T09:34:30;97364.00;;;13.00
10058;BMP180;5068;51.286;7.518;2023-04-01T09:36:28;97370.00;;;13.00
10058;BMP180;5068;51.286;7.518;2023-04-01T09:38:22;97381.00;;;12.90
10058;BMP180;5068;51.286;7.518;2023-04-01T09:40:15;97388.00;;;12.90
10058;BMP180;5068;51.286;7.518;2023-04-01T09:42:15;97382.00;;;13.00
10058;BMP180;5068;51.286;7.518;2023-04-01T09:44:10;97382.00;;;12.90
10058;BMP180;5068;51.286;7.518;2023-04-01T09:46:16;97391.00;;;12.90
10058;BMP180;5068;51.286;7.518;2023-04-01T09:48:12;97388.00;;;13.00
10058;BMP180;5068;51.286;7.518;2023-04-01T09:50:20;97394.00;;;13.00
10058;BMP180;5068;51.286;7.518;2023-04-01T09:52:26;97388.00;;;13.00
10058;BMP180;5068;51.286;7.518;2023-04-01T09:54:25;97390.00;;;13.00
10058;BMP180;5068;51.286;7.518;2023-04-01T10:01:59;97402.00;;;12.80
10058;BMP180;5068;51.286;7.518;2023-04-01T10:04:17;97407.00;;;12.80
10058;BMP180;5068;51.286;7.518;2023-04-01T10:09:06;97411.00;;;12.70
10058;BMP180;5068;51.286;7.518;2023-04-01T10:11:14;97404.00;;;12.70
10058;BMP180;5068;51.286;7.518;2023-04-01T10:13:20;97413.00;;;12.70
10058;BMP180;5068;51.286;7.518;2023-04-01T10:15:54;97410.00;;;12.70
10058;BMP180;5068;51.286;7.518;2023-04-01T10:18:09;97425.00;;;12.70
10058;BMP180;5068;51.286;7.518;2023-04-01T10:20:53;97423.00;;;12.70
10058;BMP180;5068;51.286;7.518;2023-04-01T10:23:22;97427.00;;;12.70
10058;BMP180;5068;51.286;7.518;2023-04-01T10:25:55;97428.00;;;12.70
10058;BMP180;5068;51.286;7.518;2023-04-01T10:28:03;97429.00;;;12.70